Itanagar, India
Current Conditions -  °F | °C
As of 7:20 AM on Saturday 25 Oct 2014 (Local Time) from VGHS Reporting Station
Haze Haze  
Wind Chill: 79°   Ceiling: Unl
Heat Index: 81°   Visibility: 3mi
Dew Point: 66°   Wind: 5mph
Humidity: 65%   Direction: 80°E
Pressure: 29.88"   Gusts: NA
Location:  27.13°N, 93.62°E
Report Text: VGHS 250220Z 08004KT 5000 HZ NSC 26/19 Q1012 NOSIG
Loading
Personal Weather Stations






























Interactive Weather Map New forecast layout! Learn more

10-Day Weather Forecast

Advertisements
Track Severe Weather on mobile